TIV680 KAFW-KSGR
Flight info
| Callsign | TIV680 |
|---|---|
| Flight time | 0h 42m |
| Altitude | 31000 |
| Route | JPOOL8 ELLVR SNDAY1 |
| Aircraft | C680/M-SDFGHRWY/SB1 |
Departure
| Time | 2026-04-22 02:21 |
|---|---|
| Airport | Perot Field/Fort Worth Alliance Airport (KAFW) |
Arrival
| Time | 2026-04-22 03:04 |
|---|---|
| Airport | Sugar Land Regional Airport (KSGR) |
| Time | Latitude | Longitude | Altitude | Speed | Heading |
|---|---|---|---|---|---|
| 2026-04-22 02:12 | 32.98715 | -97.31483 | 685 ft | 0 kts | 352° |
| 2026-04-22 02:18 | 32.98717 | -97.31483 | 685 ft | 2 kts | 351° |
| 2026-04-22 02:18 | 32.98717 | -97.31531 | 685 ft | 11 kts | 257° |
| 2026-04-22 02:18 | 32.98717 | -97.31641 | 682 ft | 16 kts | 323° |
| 2026-04-22 02:19 | 32.98843 | -97.31673 | 685 ft | 21 kts | 350° |
| 2026-04-22 02:19 | 32.99004 | -97.31707 | 685 ft | 26 kts | 349° |
| 2026-04-22 02:19 | 32.99189 | -97.31744 | 683 ft | 27 kts | 350° |
| 2026-04-22 02:19 | 32.99378 | -97.31783 | 685 ft | 29 kts | 349° |
| 2026-04-22 02:20 | 32.99587 | -97.31824 | 684 ft | 33 kts | 349° |
| 2026-04-22 02:20 | 32.99726 | -97.31857 | 685 ft | 15 kts | 349° |
| 2026-04-22 02:20 | 32.99779 | -97.31890 | 685 ft | 9 kts | 291° |
| 2026-04-22 02:20 | 32.99774 | -97.31981 | 685 ft | 10 kts | 245° |
| 2026-04-22 02:21 | 32.99749 | -97.31992 | 685 ft | 0 kts | 171° |
| 2026-04-22 02:21 | 32.99659 | -97.31974 | 685 ft | 45 kts | 169° |
| 2026-04-22 02:21 | 32.99024 | -97.31846 | 739 ft | 133 kts | 170° |
| 2026-04-22 02:21 | 32.97956 | -97.31649 | 1414 ft | 177 kts | 171° |
| 2026-04-22 02:22 | 32.96620 | -97.31420 | 2409 ft | 209 kts | 174° |
| 2026-04-22 02:22 | 32.95090 | -97.31075 | 3590 ft | 235 kts | 171° |
| 2026-04-22 02:22 | 32.93457 | -97.30615 | 5030 ft | 249 kts | 170° |
| 2026-04-22 02:22 | 32.91759 | -97.30119 | 6673 ft | 256 kts | 169° |
| 2026-04-22 02:23 | 32.90001 | -97.29494 | 7964 ft | 272 kts | 161° |
| 2026-04-22 02:23 | 32.88267 | -97.28466 | 9275 ft | 284 kts | 155° |
| 2026-04-22 02:23 | 32.86509 | -97.27295 | 10529 ft | 296 kts | 153° |
| 2026-04-22 02:23 | 32.84676 | -97.26129 | 11825 ft | 302 kts | 156° |
| 2026-04-22 02:24 | 32.82759 | -97.25049 | 13126 ft | 308 kts | 158° |
| 2026-04-22 02:24 | 32.80791 | -97.23954 | 14342 ft | 316 kts | 156° |
| 2026-04-22 02:24 | 32.78797 | -97.22784 | 15389 ft | 323 kts | 154° |
| 2026-04-22 02:24 | 32.76762 | -97.21576 | 16504 ft | 329 kts | 155° |
| 2026-04-22 02:25 | 32.74689 | -97.20361 | 17600 ft | 336 kts | 155° |
| 2026-04-22 02:25 | 32.72557 | -97.19135 | 18630 ft | 343 kts | 155° |
| 2026-04-22 02:25 | 32.70393 | -97.17890 | 19552 ft | 348 kts | 155° |
| 2026-04-22 02:25 | 32.68202 | -97.16619 | 20464 ft | 353 kts | 155° |
| 2026-04-22 02:26 | 32.65982 | -97.15332 | 21357 ft | 358 kts | 156° |
| 2026-04-22 02:26 | 32.63724 | -97.14031 | 22229 ft | 363 kts | 156° |
| 2026-04-22 02:26 | 32.61438 | -97.12713 | 23090 ft | 368 kts | 155° |
| 2026-04-22 02:26 | 32.59122 | -97.11376 | 23897 ft | 373 kts | 155° |
| 2026-04-22 02:27 | 32.56770 | -97.10018 | 24560 ft | 378 kts | 156° |
| 2026-04-22 02:27 | 32.54385 | -97.08645 | 25201 ft | 383 kts | 156° |
| 2026-04-22 02:27 | 32.51975 | -97.07258 | 25823 ft | 388 kts | 156° |
| 2026-04-22 02:27 | 32.49559 | -97.05868 | 26456 ft | 393 kts | 157° |
| 2026-04-22 02:28 | 32.47053 | -97.04427 | 27040 ft | 398 kts | 157° |
| 2026-04-22 02:28 | 32.44582 | -97.03006 | 27616 ft | 402 kts | 157° |
| 2026-04-22 02:28 | 32.42046 | -97.01549 | 28165 ft | 407 kts | 158° |
| 2026-04-22 02:28 | 32.39496 | -97.00085 | 28822 ft | 408 kts | 158° |
| 2026-04-22 02:29 | 32.36950 | -96.98624 | 29571 ft | 407 kts | 158° |
| 2026-04-22 02:29 | 32.34402 | -96.97163 | 30275 ft | 406 kts | 159° |
| 2026-04-22 02:29 | 32.31860 | -96.95707 | 30839 ft | 406 kts | 159° |
| 2026-04-22 02:29 | 32.29290 | -96.94314 | 31165 ft | 410 kts | 164° |
| 2026-04-22 02:30 | 32.26512 | -96.93430 | 31173 ft | 418 kts | 175° |
| 2026-04-22 02:30 | 32.23601 | -96.92929 | 31178 ft | 430 kts | 178° |
| 2026-04-22 02:30 | 32.20580 | -96.92428 | 31181 ft | 443 kts | 177° |
| 2026-04-22 02:30 | 32.17487 | -96.91879 | 31184 ft | 455 kts | 176° |
| 2026-04-22 02:31 | 32.14325 | -96.91310 | 31179 ft | 465 kts | 176° |
| 2026-04-22 02:31 | 32.07809 | -96.90190 | 31183 ft | 479 kts | 176° |
| 2026-04-22 02:32 | 32.01203 | -96.89031 | 31181 ft | 479 kts | 176° |
| 2026-04-22 02:32 | 31.94626 | -96.87896 | 31176 ft | 478 kts | 176° |
| 2026-04-22 02:33 | 31.88019 | -96.86751 | 31161 ft | 481 kts | 176° |
| 2026-04-22 02:33 | 31.81433 | -96.85610 | 31163 ft | 479 kts | 177° |
| 2026-04-22 02:34 | 31.74881 | -96.84481 | 31158 ft | 477 kts | 176° |
| 2026-04-22 02:34 | 31.68330 | -96.83019 | 31158 ft | 481 kts | 170° |
| 2026-04-22 02:35 | 31.61848 | -96.80987 | 31172 ft | 483 kts | 171° |
| 2026-04-22 02:35 | 31.55363 | -96.78993 | 31167 ft | 481 kts | 170° |
| 2026-04-22 02:36 | 31.48900 | -96.76980 | 31163 ft | 480 kts | 171° |
| 2026-04-22 02:36 | 31.42411 | -96.74985 | 31145 ft | 484 kts | 171° |
| 2026-04-22 02:37 | 31.35873 | -96.72961 | 30495 ft | 488 kts | 171° |
| 2026-04-22 02:37 | 31.32648 | -96.71963 | 29786 ft | 475 kts | 170° |
| 2026-04-22 02:37 | 31.29457 | -96.70982 | 29159 ft | 474 kts | 170° |
| 2026-04-22 02:37 | 31.26274 | -96.70008 | 28535 ft | 473 kts | 170° |
| 2026-04-22 02:38 | 31.23103 | -96.69031 | 27904 ft | 468 kts | 170° |
| 2026-04-22 02:38 | 31.19980 | -96.68050 | 27289 ft | 464 kts | 168° |
| 2026-04-22 02:38 | 31.16943 | -96.66765 | 26682 ft | 464 kts | 163° |
| 2026-04-22 02:38 | 31.13941 | -96.65401 | 26072 ft | 461 kts | 163° |
| 2026-04-22 02:39 | 31.10954 | -96.64075 | 25430 ft | 457 kts | 163° |
| 2026-04-22 02:39 | 31.07996 | -96.62771 | 24829 ft | 453 kts | 163° |
| 2026-04-22 02:39 | 31.06050 | -96.61906 | 24430 ft | 449 kts | 163° |
| 2026-04-22 02:39 | 31.02180 | -96.60171 | 23646 ft | 443 kts | 162° |
| 2026-04-22 02:40 | 31.00241 | -96.59306 | 23188 ft | 441 kts | 162° |
| 2026-04-22 02:40 | 30.97390 | -96.58042 | 22605 ft | 436 kts | 162° |
| 2026-04-22 02:40 | 30.94611 | -96.56809 | 22040 ft | 431 kts | 162° |
| 2026-04-22 02:40 | 30.91818 | -96.55568 | 21525 ft | 429 kts | 162° |
| 2026-04-22 02:41 | 30.89039 | -96.54333 | 20967 ft | 426 kts | 162° |
| 2026-04-22 02:41 | 30.86282 | -96.53110 | 20428 ft | 422 kts | 162° |
| 2026-04-22 02:41 | 30.83556 | -96.51901 | 19892 ft | 417 kts | 162° |
| 2026-04-22 02:41 | 30.80860 | -96.50706 | 19363 ft | 413 kts | 162° |
| 2026-04-22 02:42 | 30.78188 | -96.49523 | 18828 ft | 409 kts | 162° |
| 2026-04-22 02:42 | 30.75528 | -96.48347 | 18284 ft | 409 kts | 162° |
| 2026-04-22 02:42 | 30.72875 | -96.47220 | 17733 ft | 402 kts | 163° |
| 2026-04-22 02:42 | 30.70233 | -96.46130 | 17054 ft | 402 kts | 163° |
| 2026-04-22 02:43 | 30.67630 | -96.45030 | 16522 ft | 395 kts | 163° |
| 2026-04-22 02:43 | 30.65037 | -96.43945 | 15983 ft | 395 kts | 163° |
| 2026-04-22 02:43 | 30.62472 | -96.42888 | 15471 ft | 389 kts | 163° |
| 2026-04-22 02:43 | 30.59917 | -96.41835 | 14955 ft | 389 kts | 163° |
| 2026-04-22 02:44 | 30.57387 | -96.40808 | 14458 ft | 383 kts | 164° |
| 2026-04-22 02:44 | 30.54908 | -96.39850 | 13933 ft | 367 kts | 165° |
| 2026-04-22 02:44 | 30.52549 | -96.38957 | 13449 ft | 346 kts | 165° |
| 2026-04-22 02:44 | 30.50337 | -96.38089 | 13005 ft | 326 kts | 164° |
| 2026-04-22 02:45 | 30.48239 | -96.37253 | 12569 ft | 312 kts | 164° |
| 2026-04-22 02:45 | 30.46220 | -96.36462 | 12153 ft | 302 kts | 164° |
| 2026-04-22 02:45 | 30.44237 | -96.35693 | 11742 ft | 299 kts | 163° |
| 2026-04-22 02:45 | 30.42267 | -96.34924 | 11332 ft | 299 kts | 163° |
| 2026-04-22 02:46 | 30.40298 | -96.34151 | 10924 ft | 299 kts | 162° |
| 2026-04-22 02:46 | 30.38356 | -96.33390 | 10515 ft | 298 kts | 162° |
| 2026-04-22 02:46 | 30.36405 | -96.32628 | 10104 ft | 295 kts | 162° |
| 2026-04-22 02:46 | 30.34474 | -96.31873 | 9676 ft | 291 kts | 162° |
| 2026-04-22 02:47 | 30.32573 | -96.31128 | 9273 ft | 287 kts | 162° |
| 2026-04-22 02:47 | 30.30691 | -96.30393 | 8901 ft | 284 kts | 162° |
| 2026-04-22 02:47 | 30.28852 | -96.29673 | 8857 ft | 278 kts | 162° |
| 2026-04-22 02:47 | 30.26988 | -96.28951 | 8845 ft | 287 kts | 162° |
| 2026-04-22 02:48 | 30.25093 | -96.28215 | 8730 ft | 288 kts | 162° |
| 2026-04-22 02:48 | 30.23192 | -96.27470 | 8472 ft | 289 kts | 163° |
| 2026-04-22 02:48 | 30.21296 | -96.26730 | 8223 ft | 286 kts | 162° |
| 2026-04-22 02:48 | 30.19422 | -96.26000 | 7975 ft | 284 kts | 162° |
| 2026-04-22 02:49 | 30.17549 | -96.25279 | 7731 ft | 284 kts | 162° |
| 2026-04-22 02:49 | 30.15684 | -96.24544 | 7438 ft | 282 kts | 162° |
| 2026-04-22 02:49 | 30.13826 | -96.23824 | 7061 ft | 282 kts | 163° |
| 2026-04-22 02:49 | 30.11974 | -96.23103 | 6719 ft | 279 kts | 163° |
| 2026-04-22 02:50 | 30.10152 | -96.22389 | 6364 ft | 276 kts | 163° |
| 2026-04-22 02:50 | 30.08325 | -96.21683 | 5985 ft | 276 kts | 163° |
| 2026-04-22 02:50 | 30.06522 | -96.20985 | 5645 ft | 270 kts | 163° |
| 2026-04-22 02:50 | 30.04759 | -96.20300 | 5393 ft | 265 kts | 163° |
| 2026-04-22 02:51 | 30.03009 | -96.19620 | 5158 ft | 265 kts | 163° |
| 2026-04-22 02:51 | 30.01263 | -96.18944 | 4942 ft | 264 kts | 163° |
| 2026-04-22 02:51 | 29.99534 | -96.18273 | 4869 ft | 258 kts | 163° |
| 2026-04-22 02:51 | 29.97839 | -96.17616 | 4879 ft | 259 kts | 163° |
| 2026-04-22 02:52 | 29.96121 | -96.16950 | 4888 ft | 261 kts | 163° |
| 2026-04-22 02:52 | 29.94393 | -96.16282 | 4895 ft | 262 kts | 163° |
| 2026-04-22 02:52 | 29.92735 | -96.15406 | 4880 ft | 266 kts | 146° |
| 2026-04-22 02:52 | 29.91632 | -96.13695 | 4893 ft | 272 kts | 114° |
| 2026-04-22 02:53 | 29.91161 | -96.11573 | 4925 ft | 275 kts | 103° |
| 2026-04-22 02:53 | 29.90828 | -96.09404 | 4938 ft | 275 kts | 102° |
| 2026-04-22 02:53 | 29.90453 | -96.07245 | 4959 ft | 275 kts | 104° |
| 2026-04-22 02:53 | 29.90022 | -96.05100 | 4969 ft | 273 kts | 105° |
| 2026-04-22 02:54 | 29.89601 | -96.02968 | 4968 ft | 275 kts | 105° |
| 2026-04-22 02:54 | 29.89190 | -96.00784 | 4720 ft | 278 kts | 104° |
| 2026-04-22 02:54 | 29.88791 | -95.98638 | 4478 ft | 271 kts | 105° |
| 2026-04-22 02:54 | 29.88391 | -95.96532 | 4232 ft | 266 kts | 105° |
| 2026-04-22 02:55 | 29.87993 | -95.94464 | 3992 ft | 263 kts | 106° |
| 2026-04-22 02:55 | 29.87601 | -95.92413 | 3745 ft | 261 kts | 106° |
| 2026-04-22 02:55 | 29.87216 | -95.90384 | 3502 ft | 258 kts | 107° |
| 2026-04-22 02:55 | 29.86831 | -95.88367 | 3253 ft | 257 kts | 107° |
| 2026-04-22 02:56 | 29.86448 | -95.86370 | 3034 ft | 254 kts | 107° |
| 2026-04-22 02:56 | 29.86078 | -95.84419 | 3026 ft | 247 kts | 107° |
| 2026-04-22 02:56 | 29.85701 | -95.82459 | 3027 ft | 253 kts | 107° |
| 2026-04-22 02:56 | 29.85323 | -95.80492 | 3025 ft | 250 kts | 107° |
| 2026-04-22 02:57 | 29.84946 | -95.78521 | 3023 ft | 254 kts | 107° |
| 2026-04-22 02:57 | 29.84568 | -95.76550 | 3018 ft | 249 kts | 107° |
| 2026-04-22 02:57 | 29.84202 | -95.74635 | 3010 ft | 242 kts | 107° |
| 2026-04-22 02:57 | 29.83850 | -95.72795 | 3002 ft | 227 kts | 107° |
| 2026-04-22 02:58 | 29.83396 | -95.71167 | 2989 ft | 205 kts | 119° |
| 2026-04-22 02:58 | 29.82656 | -95.69788 | 2728 ft | 195 kts | 131° |
| 2026-04-22 02:58 | 29.81749 | -95.68727 | 2477 ft | 184 kts | 142° |
| 2026-04-22 02:58 | 29.80701 | -95.67934 | 2205 ft | 177 kts | 152° |
| 2026-04-22 02:59 | 29.79571 | -95.67417 | 1989 ft | 172 kts | 161° |
| 2026-04-22 02:59 | 29.78432 | -95.67177 | 1987 ft | 165 kts | 170° |
| 2026-04-22 02:59 | 29.77263 | -95.67081 | 1986 ft | 172 kts | 172° |
| 2026-04-22 02:59 | 29.76057 | -95.66967 | 1991 ft | 175 kts | 171° |
| 2026-04-22 03:00 | 29.74835 | -95.66848 | 1991 ft | 177 kts | 171° |
| 2026-04-22 03:00 | 29.73612 | -95.66731 | 1992 ft | 176 kts | 171° |
| 2026-04-22 03:00 | 29.72394 | -95.66616 | 1856 ft | 172 kts | 171° |
| 2026-04-22 03:00 | 29.71282 | -95.66514 | 1649 ft | 150 kts | 171° |
| 2026-04-22 03:01 | 29.70343 | -95.66428 | 1473 ft | 120 kts | 171° |
| 2026-04-22 03:01 | 29.69564 | -95.66354 | 1319 ft | 106 kts | 169° |
| 2026-04-22 03:01 | 29.68854 | -95.66287 | 1192 ft | 101 kts | 169° |
| 2026-04-22 03:01 | 29.68149 | -95.66214 | 1071 ft | 103 kts | 169° |
| 2026-04-22 03:02 | 29.67432 | -95.66148 | 940 ft | 103 kts | 170° |
| 2026-04-22 03:02 | 29.66712 | -95.66079 | 807 ft | 104 kts | 171° |
| 2026-04-22 03:02 | 29.65982 | -95.66005 | 675 ft | 108 kts | 172° |
| 2026-04-22 03:02 | 29.65231 | -95.65940 | 521 ft | 108 kts | 171° |
| 2026-04-22 03:03 | 29.64477 | -95.65866 | 371 ft | 111 kts | 171° |
| 2026-04-22 03:03 | 29.63714 | -95.65796 | 222 ft | 107 kts | 173° |
| 2026-04-22 03:03 | 29.62980 | -95.65727 | 93 ft | 102 kts | 172° |
| 2026-04-22 03:03 | 29.62359 | -95.65665 | 88 ft | 76 kts | 176° |
| 2026-04-22 03:04 | 29.61977 | -95.65632 | 89 ft | 28 kts | 174° |
| 2026-04-22 03:04 | 29.61859 | -95.65612 | 91 ft | 11 kts | 135° |
| 2026-04-22 03:04 | 29.61857 | -95.65516 | 91 ft | 11 kts | 74° |
| 2026-04-22 03:04 | 29.61943 | -95.65500 | 89 ft | 16 kts | 356° |
| 2026-04-22 03:05 | 29.62057 | -95.65512 | 88 ft | 19 kts | 355° |
| 2026-04-22 03:05 | 29.62186 | -95.65524 | 88 ft | 21 kts | 355° |
| 2026-04-22 03:05 | 29.62333 | -95.65539 | 88 ft | 22 kts | 356° |
| 2026-04-22 03:05 | 29.62469 | -95.65551 | 89 ft | 20 kts | 355° |
| 2026-04-22 03:06 | 29.62623 | -95.65565 | 87 ft | 21 kts | 355° |
| 2026-04-22 03:06 | 29.62669 | -95.65530 | 88 ft | 10 kts | 88° |
| 2026-04-22 03:06 | 29.62686 | -95.65439 | 89 ft | 12 kts | 25° |
| 2026-04-22 03:06 | 29.62761 | -95.65376 | 87 ft | 12 kts | 82° |
| 2026-04-22 03:07 | 29.62744 | -95.65342 | 90 ft | 0 kts | 175° |